sensor_id;sensor_type;location;lat;lon;timestamp;pressure;altitude;pressure_sealevel;temperature;humidity
37792;BME280;29527;55.766;37.570;2024-02-21T00:01:42;100684.94;;;-6.90;62.39
37792;BME280;29527;55.766;37.570;2024-02-21T00:04:07;100669.31;;;-6.92;62.27
37792;BME280;29527;55.766;37.570;2024-02-21T00:06:33;100678.84;;;-6.93;62.32
37792;BME280;29527;55.766;37.570;2024-02-21T00:08:59;100652.72;;;-7.10;62.24
37792;BME280;29527;55.766;37.570;2024-02-21T00:11:24;100675.38;;;-6.95;62.45
37792;BME280;29527;55.766;37.570;2024-02-21T00:13:50;100681.47;;;-6.91;62.05
37792;BME280;29527;55.766;37.570;2024-02-21T00:16:16;100671.03;;;-6.96;62.64
37792;BME280;29527;55.766;37.570;2024-02-21T00:18:43;100645.81;;;-7.08;62.48
37792;BME280;29527;55.766;37.570;2024-02-21T00:21:09;100659.75;;;-6.88;62.42
37792;BME280;29527;55.766;37.570;2024-02-21T00:23:34;100674.50;;;-6.90;62.66
37792;BME280;29527;55.766;37.570;2024-02-21T00:26:00;100663.19;;;-6.99;62.66
37792;BME280;29527;55.766;37.570;2024-02-21T00:28:25;100663.25;;;-6.94;62.50
37792;BME280;29527;55.766;37.570;2024-02-21T00:30:51;100657.16;;;-6.96;62.39
37792;BME280;29527;55.766;37.570;2024-02-21T00:33:18;100659.78;;;-6.93;62.39
37792;BME280;29527;55.766;37.570;2024-02-21T00:35:44;100661.53;;;-6.84;62.49
37792;BME280;29527;55.766;37.570;2024-02-21T00:38:10;100653.75;;;-6.81;62.57
37792;BME280;29527;55.766;37.570;2024-02-21T00:40:35;100649.44;;;-6.73;62.15
37792;BME280;29527;55.766;37.570;2024-02-21T00:43:01;100659.00;;;-6.64;62.32
37792;BME280;29527;55.766;37.570;2024-02-21T00:45:26;100640.78;;;-6.63;61.53
37792;BME280;29527;55.766;37.570;2024-02-21T00:47:52;100645.16;;;-6.46;61.49
37792;BME280;29527;55.766;37.570;2024-02-21T00:50:17;100608.66;;;-6.66;61.11
37792;BME280;29527;55.766;37.570;2024-02-21T00:52:44;100644.31;;;-6.37;61.51
37792;BME280;29527;55.766;37.570;2024-02-21T00:55:10;100632.16;;;-6.29;61.12
37792;BME280;29527;55.766;37.570;2024-02-21T00:57:36;100533.97;;;-6.75;60.48
37792;BME280;29527;55.766;37.570;2024-02-21T01:00:02;100619.16;;;-6.21;60.70
37792;BME280;29527;55.766;37.570;2024-02-21T01:02:29;100630.47;;;-6.07;60.36
37792;BME280;29527;55.766;37.570;2024-02-21T01:04:58;100630.47;;;-6.08;60.86
37792;BME280;29527;55.766;37.570;2024-02-21T01:07:23;100623.47;;;-5.98;60.28
37792;BME280;29527;55.766;37.570;2024-02-21T01:09:50;100607.88;;;-6.01;60.25
37792;BME280;29527;55.766;37.570;2024-02-21T01:12:16;100627.84;;;-5.99;60.00
37792;BME280;29527;55.766;37.570;2024-02-21T01:14:42;100612.19;;;-5.96;59.48
37792;BME280;29527;55.766;37.570;2024-02-21T01:17:08;100606.09;;;-5.95;60.27
37792;BME280;29527;55.766;37.570;2024-02-21T01:19:33;100621.72;;;-5.82;59.70
37792;BME280;29527;55.766;37.570;2024-02-21T01:21:59;100611.31;;;-5.84;59.85
37792;BME280;29527;55.766;37.570;2024-02-21T01:24:25;100612.19;;;-5.77;59.58
37792;BME280;29527;55.766;37.570;2024-02-21T01:26:50;100618.28;;;-5.80;59.61
37792;BME280;29527;55.766;37.570;2024-02-21T01:29:16;100544.44;;;-6.11;59.54
37792;BME280;29527;55.766;37.570;2024-02-21T01:31:41;100603.47;;;-5.78;59.63
37792;BME280;29527;55.766;37.570;2024-02-21T01:34:07;100603.47;;;-5.71;59.59
37792;BME280;29527;55.766;37.570;2024-02-21T01:36:32;100606.97;;;-5.71;59.35
37792;BME280;29527;55.766;37.570;2024-02-21T01:38:58;100608.69;;;-5.64;59.23
37792;BME280;29527;55.766;37.570;2024-02-21T01:41:23;100534.84;;;-5.94;59.29
37792;BME280;29527;55.766;37.570;2024-02-21T01:43:49;100590.41;;;-5.57;58.89
37792;BME280;29527;55.766;37.570;2024-02-21T01:46:15;100589.53;;;-5.55;58.81
37792;BME280;29527;55.766;37.570;2024-02-21T01:48:41;100597.38;;;-5.61;59.19
37792;BME280;29527;55.766;37.570;2024-02-21T01:51:07;100586.06;;;-5.49;59.00
37792;BME280;29527;55.766;37.570;2024-02-21T01:53:36;100587.78;;;-5.45;59.23
37792;BME280;29527;55.766;37.570;2024-02-21T01:56:03;100587.78;;;-5.53;59.22
37792;BME280;29527;55.766;37.570;2024-02-21T01:58:30;100592.13;;;-5.49;59.51
37792;BME280;29527;55.766;37.570;2024-02-21T02:00:59;100566.03;;;-5.52;59.42
37792;BME280;29527;55.766;37.570;2024-02-21T02:03:24;100595.59;;;-5.39;59.15
37792;BME280;29527;55.766;37.570;2024-02-21T02:05:51;100576.47;;;-5.36;59.08
37792;BME280;29527;55.766;37.570;2024-02-21T02:08:18;100572.09;;;-5.39;59.30
37792;BME280;29527;55.766;37.570;2024-02-21T02:10:44;100576.47;;;-5.36;58.78
37792;BME280;29527;55.766;37.570;2024-02-21T02:13:11;100520.88;;;-5.66;58.89
37792;BME280;29527;55.766;37.570;2024-02-21T02:15:47;100555.56;;;-5.35;59.53
37792;BME280;29527;55.766;37.570;2024-02-21T02:18:14;100563.38;;;-5.27;59.27
37792;BME280;29527;55.766;37.570;2024-02-21T02:20:40;100517.34;;;-5.53;59.14
37792;BME280;29527;55.766;37.570;2024-02-21T02:23:25;100570.25;;;-5.02;58.55
37792;BME280;29527;55.766;37.570;2024-02-21T02:25:51;100526.00;;;-5.43;58.53
37792;BME280;29527;55.766;37.570;2024-02-21T02:28:18;100554.69;;;-5.30;58.75
37792;BME280;29527;55.766;37.570;2024-02-21T02:30:44;100568.56;;;-5.17;58.91
37792;BME280;29527;55.766;37.570;2024-02-21T02:33:09;100565.09;;;-5.21;59.14
37792;BME280;29527;55.766;37.570;2024-02-21T02:35:35;100572.88;;;-5.10;58.58
37792;BME280;29527;55.766;37.570;2024-02-21T02:38:02;100561.59;;;-5.19;58.96
37792;BME280;29527;55.766;37.570;2024-02-21T02:40:28;100560.69;;;-5.13;58.99
37792;BME280;29527;55.766;37.570;2024-02-21T02:42:54;100578.94;;;-5.07;58.69
37792;BME280;29527;55.766;37.570;2024-02-21T02:45:23;100578.09;;;-5.06;58.77
37792;BME280;29527;55.766;37.570;2024-02-21T02:47:49;100568.50;;;-5.00;58.87
37792;BME280;29527;55.766;37.570;2024-02-21T02:50:14;100518.13;;;-5.24;58.99
37792;BME280;29527;55.766;37.570;2024-02-21T02:52:40;100558.00;;;-4.93;58.45
37792;BME280;29527;55.766;37.570;2024-02-21T02:55:06;100559.75;;;-4.93;58.56
37792;BME280;29527;55.766;37.570;2024-02-21T02:57:32;100556.31;;;-5.01;58.43
37792;BME280;29527;55.766;37.570;2024-02-21T02:59:58;100570.16;;;-4.90;58.54
37792;BME280;29527;55.766;37.570;2024-02-21T03:02:23;100565.81;;;-4.88;58.86
37792;BME280;29527;55.766;37.570;2024-02-21T03:04:49;100572.75;;;-4.84;58.94
37792;BME280;29527;55.766;37.570;2024-02-21T03:07:15;100573.59;;;-4.77;58.93
37792;BME280;29527;55.766;37.570;2024-02-21T03:09:41;100515.41;;;-5.09;58.39
37792;BME280;29527;55.766;37.570;2024-02-21T03:12:10;100562.25;;;-4.74;58.97
37792;BME280;29527;55.766;37.570;2024-02-21T03:14:36;100577.06;;;-4.73;58.60
37792;BME280;29527;55.766;37.570;2024-02-21T03:17:02;100562.22;;;-4.67;58.54
37792;BME280;29527;55.766;37.570;2024-02-21T03:19:28;100551.81;;;-4.76;58.59
37792;BME280;29527;55.766;37.570;2024-02-21T03:21:54;100554.38;;;-4.68;58.50
37792;BME280;29527;55.766;37.570;2024-02-21T03:24:21;100550.13;;;-4.82;58.32
37792;BME280;29527;55.766;37.570;2024-02-21T03:26:47;100551.84;;;-4.84;58.81
37792;BME280;29527;55.766;37.570;2024-02-21T03:29:14;100564.81;;;-4.65;58.69
37792;BME280;29527;55.766;37.570;2024-02-21T03:31:40;100556.13;;;-4.67;58.54
37792;BME280;29527;55.766;37.570;2024-02-21T03:34:06;100555.28;;;-4.74;59.22
37792;BME280;29527;55.766;37.570;2024-02-21T03:36:31;100566.59;;;-4.70;58.45
37792;BME280;29527;55.766;37.570;2024-02-21T03:38:57;100551.78;;;-4.70;59.10
37792;BME280;29527;55.766;37.570;2024-02-21T03:41:23;100557.75;;;-4.49;57.81
37792;BME280;29527;55.766;37.570;2024-02-21T03:43:48;100556.09;;;-4.64;58.11
37792;BME280;29527;55.766;37.570;2024-02-21T03:46:14;100510.97;;;-4.91;58.50
37792;BME280;29527;55.766;37.570;2024-02-21T03:48:40;100552.63;;;-4.66;58.92
37792;BME280;29527;55.766;37.570;2024-02-21T03:51:05;100541.34;;;-4.73;59.11
37792;BME280;29527;55.766;37.570;2024-02-21T03:53:32;100557.81;;;-4.57;58.74
37792;BME280;29527;55.766;37.570;2024-02-21T03:56:01;100550.91;;;-4.67;58.63
37792;BME280;29527;55.766;37.570;2024-02-21T03:58:28;100558.72;;;-4.66;58.70
37792;BME280;29527;55.766;37.570;2024-02-21T04:00:54;100554.38;;;-4.64;58.97
37792;BME280;29527;55.766;37.570;2024-02-21T04:03:19;100557.78;;;-4.54;58.66
37792;BME280;29527;55.766;37.570;2024-02-21T04:05:45;100559.44;;;-4.43;58.11
37792;BME280;29527;55.766;37.570;2024-02-21T04:08:11;100551.63;;;-4.47;58.16
37792;BME280;29527;55.766;37.570;2024-02-21T04:10:37;100549.13;;;-4.64;58.36
37792;BME280;29527;55.766;37.570;2024-02-21T04:13:03;100552.56;;;-4.54;59.16
37792;BME280;29527;55.766;37.570;2024-02-21T04:15:29;100551.63;;;-4.48;58.74
37792;BME280;29527;55.766;37.570;2024-02-21T04:17:54;100553.38;;;-4.45;58.72
37792;BME280;29527;55.766;37.570;2024-02-21T04:20:20;100559.41;;;-4.37;58.81
37792;BME280;29527;55.766;37.570;2024-02-21T04:22:46;100566.47;;;-4.49;58.68
37792;BME280;29527;55.766;37.570;2024-02-21T04:25:12;100568.19;;;-4.43;59.09
37792;BME280;29527;55.766;37.570;2024-02-21T04:27:38;100555.94;;;-4.39;58.37
37792;BME280;29527;55.766;37.570;2024-02-21T04:30:04;100569.00;;;-4.38;58.40
37792;BME280;29527;55.766;37.570;2024-02-21T04:32:30;100561.09;;;-4.32;58.56
37792;BME280;29527;55.766;37.570;2024-02-21T04:34:56;100566.38;;;-4.33;58.69
37792;BME280;29527;55.766;37.570;2024-02-21T04:37:21;100558.53;;;-4.39;58.95
37792;BME280;29527;55.766;37.570;2024-02-21T04:39:48;100509.13;;;-4.69;58.68
37792;BME280;29527;55.766;37.570;2024-02-21T04:42:14;100560.22;;;-4.29;58.26
37792;BME280;29527;55.766;37.570;2024-02-21T04:44:40;100555.06;;;-4.37;58.57
37792;BME280;29527;55.766;37.570;2024-02-21T04:47:05;100561.13;;;-4.30;58.74
37792;BME280;29527;55.766;37.570;2024-02-21T04:49:31;100563.75;;;-4.33;58.90
37792;BME280;29527;55.766;37.570;2024-02-21T04:51:56;100515.13;;;-4.61;58.81
37792;BME280;29527;55.766;37.570;2024-02-21T04:54:22;100569.75;;;-4.22;59.30
37792;BME280;29527;55.766;37.570;2024-02-21T04:56:47;100557.50;;;-4.16;59.32
37792;BME280;29527;55.766;37.570;2024-02-21T04:59:13;100533.97;;;-4.16;58.72
37792;BME280;29527;55.766;37.570;2024-02-21T05:01:38;100527.88;;;-4.19;58.74
37792;BME280;29527;55.766;37.570;2024-02-21T05:04:04;100560.03;;;-4.06;58.88
37792;BME280;29527;55.766;37.570;2024-02-21T05:06:30;100546.91;;;-4.01;58.64
37792;BME280;29527;55.766;37.570;2024-02-21T05:08:55;100503.53;;;-4.24;58.69
37792;BME280;29527;55.766;37.570;2024-02-21T05:11:23;100552.06;;;-3.92;58.61
37792;BME280;29527;55.766;37.570;2024-02-21T05:13:49;100545.97;;;-3.94;58.64
37792;BME280;29527;55.766;37.570;2024-02-21T05:16:15;100551.16;;;-3.87;58.48
37792;BME280;29527;55.766;37.570;2024-02-21T05:18:41;100553.69;;;-3.78;58.29
37792;BME280;29527;55.766;37.570;2024-02-21T05:21:08;100569.31;;;-3.72;58.40
37792;BME280;29527;55.766;37.570;2024-02-21T05:23:33;100551.91;;;-3.73;57.65
37792;BME280;29527;55.766;37.570;2024-02-21T05:25:59;100543.16;;;-3.72;57.84
37792;BME280;29527;55.766;37.570;2024-02-21T05:28:24;100556.22;;;-3.69;57.66
37792;BME280;29527;55.766;37.570;2024-02-21T05:30:50;100554.38;;;-3.59;57.64
37792;BME280;29527;55.766;37.570;2024-02-21T05:33:15;100550.91;;;-3.61;58.13
37792;BME280;29527;55.766;37.570;2024-02-21T05:35:47;100555.25;;;-3.58;57.88
37792;BME280;29527;55.766;37.570;2024-02-21T05:38:15;100555.28;;;-3.62;57.89
37792;BME280;29527;55.766;37.570;2024-02-21T05:40:41;100537.84;;;-3.64;57.52
37792;BME280;29527;55.766;37.570;2024-02-21T05:43:09;100543.81;;;-3.51;57.56
37792;BME280;29527;55.766;37.570;2024-02-21T05:45:35;100544.56;;;-3.40;57.33
37792;BME280;29527;55.766;37.570;2024-02-21T05:48:01;100541.09;;;-3.42;56.96
37792;BME280;29527;55.766;37.570;2024-02-21T05:50:28;100552.41;;;-3.38;57.51
37792;BME280;29527;55.766;37.570;2024-02-21T05:52:54;100553.25;;;-3.38;57.69
37792;BME280;29527;55.766;37.570;2024-02-21T05:55:21;100555.78;;;-3.30;57.01
37792;BME280;29527;55.766;37.570;2024-02-21T05:57:46;100560.19;;;-3.32;57.70
37792;BME280;29527;55.766;37.570;2024-02-21T06:00:14;100562.75;;;-3.29;57.40
37792;BME280;29527;55.766;37.570;2024-02-21T06:02:41;100545.28;;;-3.25;57.28
37792;BME280;29527;55.766;37.570;2024-02-21T06:05:07;100553.00;;;-3.16;56.87
37792;BME280;29527;55.766;37.570;2024-02-21T06:07:33;100563.47;;;-3.13;57.35
37792;BME280;29527;55.766;37.570;2024-02-21T06:10:02;100560.69;;;-3.02;57.09
37792;BME280;29527;55.766;37.570;2024-02-21T06:12:30;100565.91;;;-3.00;56.41
37792;BME280;29527;55.766;37.570;2024-02-21T06:14:55;100559.78;;;-2.98;57.11
37792;BME280;29527;55.766;37.570;2024-02-21T06:17:21;100549.16;;;-2.87;56.27
37792;BME280;29527;55.766;37.570;2024-02-21T06:19:46;100544.78;;;-2.85;56.21
37792;BME280;29527;55.766;37.570;2024-02-21T06:22:12;100554.22;;;-2.73;56.16
37792;BME280;29527;55.766;37.570;2024-02-21T06:24:38;100554.13;;;-2.65;56.17
37792;BME280;29527;55.766;37.570;2024-02-21T06:27:04;100538.41;;;-2.68;56.02
37792;BME280;29527;55.766;37.570;2024-02-21T06:29:32;100554.75;;;-2.51;55.44
37792;BME280;29527;55.766;37.570;2024-02-21T06:31:57;100551.31;;;-2.53;55.55
37792;BME280;29527;55.766;37.570;2024-02-21T06:34:23;100520.78;;;-2.57;55.33
37792;BME280;29527;55.766;37.570;2024-02-21T06:36:50;100559.84;;;-2.40;55.83
37792;BME280;29527;55.766;37.570;2024-02-21T06:39:15;100545.69;;;-2.29;55.45
37792;BME280;29527;55.766;37.570;2024-02-21T06:41:41;100562.31;;;-2.27;55.37
37792;BME280;29527;55.766;37.570;2024-02-21T06:44:07;100562.25;;;-2.26;55.33
37792;BME280;29527;55.766;37.570;2024-02-21T06:46:32;100509.34;;;-2.51;54.75
37792;BME280;29527;55.766;37.570;2024-02-21T06:48:59;100554.25;;;-2.17;55.01
37792;BME280;29527;55.766;37.570;2024-02-21T06:51:34;100560.13;;;-2.00;54.86
37792;BME280;29527;55.766;37.570;2024-02-21T06:54:00;100533.94;;;-2.05;54.35
37792;BME280;29527;55.766;37.570;2024-02-21T06:56:26;100552.38;;;-2.08;54.70
37792;BME280;29527;55.766;37.570;2024-02-21T06:58:55;100556.81;;;-2.13;55.32
37792;BME280;29527;55.766;37.570;2024-02-21T07:01:21;100529.66;;;-2.11;54.98
37792;BME280;29527;55.766;37.570;2024-02-21T07:03:46;100538.41;;;-2.10;54.66
37792;BME280;29527;55.766;37.570;2024-02-21T07:06:12;100539.13;;;-2.02;54.69
37792;BME280;29527;55.766;37.570;2024-02-21T07:08:38;100551.13;;;-1.87;54.09
37792;BME280;29527;55.766;37.570;2024-02-21T07:11:04;100551.06;;;-1.82;54.18
37792;BME280;29527;55.766;37.570;2024-02-21T07:13:30;100543.94;;;-1.77;54.11
37792;BME280;29527;55.766;37.570;2024-02-21T07:15:55;100500.59;;;-2.00;53.86
37792;BME280;29527;55.766;37.570;2024-02-21T07:18:21;100541.00;;;-1.60;53.80
37792;BME280;29527;55.766;37.570;2024-02-21T07:20:46;100539.25;;;-1.60;53.22
37792;BME280;29527;55.766;37.570;2024-02-21T07:23:12;100535.75;;;-1.59;53.61
37792;BME280;29527;55.766;37.570;2024-02-21T07:25:38;100531.94;;;-1.43;54.04
37792;BME280;29527;55.766;37.570;2024-02-21T07:28:05;100535.88;;;-1.19;52.72
37792;BME280;29527;55.766;37.570;2024-02-21T07:30:31;100534.00;;;-1.14;52.52
37792;BME280;29527;55.766;37.570;2024-02-21T07:32:56;100536.44;;;-1.05;52.67
37792;BME280;29527;55.766;37.570;2024-02-21T07:35:22;100544.31;;;-1.05;52.33
37792;BME280;29527;55.766;37.570;2024-02-21T07:37:47;100538.44;;;-1.16;52.30
37792;BME280;29527;55.766;37.570;2024-02-21T07:40:13;100538.50;;;-1.19;52.35
37792;BME280;29527;55.766;37.570;2024-02-21T07:42:40;100519.81;;;-1.05;51.76
37792;BME280;29527;55.766;37.570;2024-02-21T07:45:07;100545.59;;;-0.42;50.83
37792;BME280;29527;55.766;37.570;2024-02-21T07:47:33;100535.97;;;0.61;49.46
37792;BME280;29527;55.766;37.570;2024-02-21T07:49:58;100533.28;;;1.52;46.59
37792;BME280;29527;55.766;37.570;2024-02-21T07:52:24;100530.19;;;1.93;46.01
37792;BME280;29527;55.766;37.570;2024-02-21T07:54:50;100455.09;;;2.00;44.43
37792;BME280;29527;55.766;37.570;2024-02-21T07:57:16;100514.22;;;2.72;43.91
37792;BME280;29527;55.766;37.570;2024-02-21T07:59:42;100512.75;;;3.35;42.85
37792;BME280;29527;55.766;37.570;2024-02-21T08:02:08;100520.81;;;3.97;41.34
37792;BME280;29527;55.766;37.570;2024-02-21T08:04:34;100499.50;;;4.42;40.68
37792;BME280;29527;55.766;37.570;2024-02-21T08:07:00;100510.84;;;4.45;40.54
37792;BME280;29527;55.766;37.570;2024-02-21T08:09:28;100496.84;;;4.42;40.27
37792;BME280;29527;55.766;37.570;2024-02-21T08:11:54;100507.44;;;4.63;39.78
37792;BME280;29527;55.766;37.570;2024-02-21T08:14:20;100504.97;;;4.58;40.20
37792;BME280;29527;55.766;37.570;2024-02-21T08:16:46;100510.56;;;4.52;39.95
37792;BME280;29527;55.766;37.570;2024-02-21T08:19:11;100502.75;;;4.49;39.64
37792;BME280;29527;55.766;37.570;2024-02-21T08:21:37;100519.31;;;4.33;39.30
37792;BME280;29527;55.766;37.570;2024-02-21T08:24:03;100499.00;;;4.13;40.24
37792;BME280;29527;55.766;37.570;2024-02-21T08:26:28;100495.94;;;4.01;40.59
37792;BME280;29527;55.766;37.570;2024-02-21T08:28:59;100518.13;;;3.99;40.37
37792;BME280;29527;55.766;37.570;2024-02-21T08:31:26;100495.84;;;3.82;40.70
37792;BME280;29527;55.766;37.570;2024-02-21T08:34:00;100504.88;;;3.99;40.68
37792;BME280;29527;55.766;37.570;2024-02-21T08:36:30;100517.38;;;3.95;39.76
37792;BME280;29527;55.766;37.570;2024-02-21T08:38:56;100502.16;;;3.80;40.70
37792;BME280;29527;55.766;37.570;2024-02-21T08:41:23;100508.28;;;3.80;40.44
37792;BME280;29527;55.766;37.570;2024-02-21T08:43:53;100504.41;;;3.89;40.70
37792;BME280;29527;55.766;37.570;2024-02-21T08:46:20;100502.63;;;3.90;39.85
37792;BME280;29527;55.766;37.570;2024-02-21T08:48:46;100500.47;;;3.77;39.27
37792;BME280;29527;55.766;37.570;2024-02-21T08:51:13;100512.66;;;3.37;39.95
37792;BME280;29527;55.766;37.570;2024-02-21T08:53:39;100514.88;;;3.03;41.09
37792;BME280;29527;55.766;37.570;2024-02-21T08:56:05;100462.19;;;2.49;42.13
37792;BME280;29527;55.766;37.570;2024-02-21T08:58:31;100497.88;;;2.12;42.75
37792;BME280;29527;55.766;37.570;2024-02-21T09:00:56;100515.81;;;1.75;43.98
37792;BME280;29527;55.766;37.570;2024-02-21T09:03:22;100499.06;;;1.49;44.85
37792;BME280;29527;55.766;37.570;2024-02-21T09:05:48;100504.34;;;1.49;44.96
37792;BME280;29527;55.766;37.570;2024-02-21T09:08:14;100502.63;;;1.48;44.48
37792;BME280;29527;55.766;37.570;2024-02-21T09:10:40;100507.78;;;1.51;44.34
37792;BME280;29527;55.766;37.570;2024-02-21T09:13:05;100511.81;;;1.35;44.64
37792;BME280;29527;55.766;37.570;2024-02-21T09:15:32;100497.03;;;1.29;45.05
37792;BME280;29527;55.766;37.570;2024-02-21T09:17:58;100493.78;;;1.49;44.82
37792;BME280;29527;55.766;37.570;2024-02-21T09:20:23;100494.28;;;1.61;44.81
37792;BME280;29527;55.766;37.570;2024-02-21T09:22:49;100446.94;;;1.83;44.78
37792;BME280;29527;55.766;37.570;2024-02-21T09:25:14;100490.31;;;2.52;43.21
37792;BME280;29527;55.766;37.570;2024-02-21T09:27:40;100484.00;;;2.80;42.92
37792;BME280;29527;55.766;37.570;2024-02-21T09:30:06;100436.38;;;2.80;42.10
37792;BME280;29527;55.766;37.570;2024-02-21T09:32:32;100485.16;;;3.19;41.83
37792;BME280;29527;55.766;37.570;2024-02-21T09:34:58;100462.88;;;3.24;40.59
37792;BME280;29527;55.766;37.570;2024-02-21T09:37:24;100475.00;;;3.08;41.33
37792;BME280;29527;55.766;37.570;2024-02-21T09:39:49;100474.56;;;2.96;42.76
37792;BME280;29527;55.766;37.570;2024-02-21T09:42:20;100478.03;;;2.97;41.50
37792;BME280;29527;55.766;37.570;2024-02-21T09:44:46;100474.03;;;2.86;41.91
37792;BME280;29527;55.766;37.570;2024-02-21T09:47:22;100465.88;;;2.69;42.16
37792;BME280;29527;55.766;37.570;2024-02-21T09:49:49;100474.78;;;2.42;42.56
37792;BME280;29527;55.766;37.570;2024-02-21T09:52:19;100477.38;;;2.44;42.36
37792;BME280;29527;55.766;37.570;2024-02-21T09:54:45;100440.22;;;1.72;43.03
37792;BME280;29527;55.766;37.570;2024-02-21T09:57:14;100429.63;;;1.47;43.80
37792;BME280;29527;55.766;37.570;2024-02-21T09:59:40;100465.81;;;1.70;44.26
37792;BME280;29527;55.766;37.570;2024-02-21T10:02:07;100460.94;;;1.58;43.84
37792;BME280;29527;55.766;37.570;2024-02-21T10:04:33;100482.97;;;1.57;44.29
37792;BME280;29527;55.766;37.570;2024-02-21T10:06:59;100491.66;;;1.32;44.38
37792;BME280;29527;55.766;37.570;2024-02-21T10:09:26;100486.41;;;1.04;45.24
37792;BME280;29527;55.766;37.570;2024-02-21T10:11:55;100465.06;;;0.81;45.55
37792;BME280;29527;55.766;37.570;2024-02-21T10:14:21;100480.84;;;0.83;46.06
37792;BME280;29527;55.766;37.570;2024-02-21T10:16:48;100482.44;;;0.89;45.33
37792;BME280;29527;55.766;37.570;2024-02-21T10:19:20;100470.31;;;0.83;46.28
37792;BME280;29527;55.766;37.570;2024-02-21T10:22:07;100472.53;;;0.97;45.93
37792;BME280;29527;55.766;37.570;2024-02-21T10:24:36;100469.50;;;0.81;45.41
37792;BME280;29527;55.766;37.570;2024-02-21T10:27:08;100465.84;;;0.55;46.86
37792;BME280;29527;55.766;37.570;2024-02-21T10:29:35;100460.81;;;0.46;46.78
37792;BME280;29527;55.766;37.570;2024-02-21T10:32:11;100470.94;;;0.61;47.05
37792;BME280;29527;55.766;37.570;2024-02-21T10:34:38;100460.00;;;0.43;46.61
37792;BME280;29527;55.766;37.570;2024-02-21T10:37:05;100475.00;;;0.71;46.38
37792;BME280;29527;55.766;37.570;2024-02-21T10:39:32;100469.38;;;0.54;46.53
37792;BME280;29527;55.766;37.570;2024-02-21T10:42:03;100471.16;;;0.53;46.57
37792;BME280;29527;55.766;37.570;2024-02-21T10:44:35;100445.56;;;0.27;47.24
37792;BME280;29527;55.766;37.570;2024-02-21T10:47:05;100460.56;;;0.23;47.29
37792;BME280;29527;55.766;37.570;2024-02-21T10:49:38;100453.59;;;0.21;47.45
37792;BME280;29527;55.766;37.570;2024-02-21T10:52:17;100453.22;;;0.35;47.64
37792;BME280;29527;55.766;37.570;2024-02-21T10:54:55;100459.00;;;0.48;47.41
37792;BME280;29527;55.766;37.570;2024-02-21T10:57:23;100452.09;;;0.43;47.26
37792;BME280;29527;55.766;37.570;2024-02-21T10:59:50;100455.72;;;0.41;47.06
37792;BME280;29527;55.766;37.570;2024-02-21T11:02:16;100463.81;;;0.33;47.87
37792;BME280;29527;55.766;37.570;2024-02-21T11:04:43;100458.28;;;0.42;47.49
37792;BME280;29527;55.766;37.570;2024-02-21T11:07:09;100460.44;;;0.28;47.97
37792;BME280;29527;55.766;37.570;2024-02-21T11:09:35;100437.38;;;0.05;48.20
37792;BME280;29527;55.766;37.570;2024-02-21T11:12:05;100443.75;;;0.29;48.26
37792;BME280;29527;55.766;37.570;2024-02-21T11:14:31;100448.41;;;0.19;48.14
37792;BME280;29527;55.766;37.570;2024-02-21T11:16:58;100455.94;;;0.32;47.76
37792;BME280;29527;55.766;37.570;2024-02-21T11:19:28;100443.59;;;0.02;48.33
37792;BME280;29527;55.766;37.570;2024-02-21T11:21:56;100451.72;;;-0.07;48.60
37792;BME280;29527;55.766;37.570;2024-02-21T11:24:27;100434.19;;;-0.08;48.37
37792;BME280;29527;55.766;37.570;2024-02-21T11:26:56;100436.56;;;-0.32;48.90
37792;BME280;29527;55.766;37.570;2024-02-21T11:29:26;100410.38;;;-0.37;49.13
37792;BME280;29527;55.766;37.570;2024-02-21T11:31:52;100434.41;;;-0.16;48.95
37792;BME280;29527;55.766;37.570;2024-02-21T11:34:18;100424.69;;;-0.47;49.71
37792;BME280;29527;55.766;37.570;2024-02-21T11:39:25;100429.41;;;-0.27;49.91
37792;BME280;29527;55.766;37.570;2024-02-21T11:44:26;100427.03;;;-0.36;49.06
37792;BME280;29527;55.766;37.570;2024-02-21T11:46:52;100428.75;;;-0.35;49.81
37792;BME280;29527;55.766;37.570;2024-02-21T11:49:17;100446.28;;;-0.34;49.89
37792;BME280;29527;55.766;37.570;2024-02-21T11:51:43;100430.66;;;-0.40;49.57
37792;BME280;29527;55.766;37.570;2024-02-21T11:54:10;100441.19;;;-0.40;49.56
37792;BME280;29527;55.766;37.570;2024-02-21T11:56:36;100424.28;;;-0.66;49.79
37792;BME280;29527;55.766;37.570;2024-02-21T11:59:02;100426.00;;;-0.65;50.13
37792;BME280;29527;55.766;37.570;2024-02-21T12:01:27;100428.78;;;-0.71;50.11
37792;BME280;29527;55.766;37.570;2024-02-21T12:03:53;100436.81;;;-0.78;50.40
37792;BME280;29527;55.766;37.570;2024-02-21T12:06:19;100417.56;;;-0.80;50.54
37792;BME280;29527;55.766;37.570;2024-02-21T12:08:46;100437.38;;;-0.65;50.09
37792;BME280;29527;55.766;37.570;2024-02-21T12:11:30;100422.16;;;-0.88;51.08
37792;BME280;29527;55.766;37.570;2024-02-21T12:14:03;100426.75;;;-0.96;51.81
37792;BME280;29527;55.766;37.570;2024-02-21T12:16:30;100426.09;;;-1.06;51.69
37792;BME280;29527;55.766;37.570;2024-02-21T12:18:57;100425.13;;;-1.04;51.56
37792;BME280;29527;55.766;37.570;2024-02-21T12:21:33;100420.44;;;-0.89;51.37
37792;BME280;29527;55.766;37.570;2024-02-21T12:24:21;100414.53;;;-0.99;51.88
37792;BME280;29527;55.766;37.570;2024-02-21T12:26:46;100360.25;;;-1.39;52.14
37792;BME280;29527;55.766;37.570;2024-02-21T12:29:12;100407.72;;;-1.09;52.04
37792;BME280;29527;55.766;37.570;2024-02-21T12:31:38;100408.63;;;-1.09;51.90
37792;BME280;29527;55.766;37.570;2024-02-21T12:34:04;100406.09;;;-1.13;52.23
37792;BME280;29527;55.766;37.570;2024-02-21T12:36:33;100428.75;;;-1.09;52.13
37792;BME280;29527;55.766;37.570;2024-02-21T12:38:59;100353.44;;;-1.48;51.66
37792;BME280;29527;55.766;37.570;2024-02-21T12:41:27;100412.38;;;-1.19;52.01
37792;BME280;29527;55.766;37.570;2024-02-21T12:43:53;100385.66;;;-1.40;53.09
37792;BME280;29527;55.766;37.570;2024-02-21T12:46:19;100404.81;;;-1.35;52.37